sensor_id;sensor_type;location;lat;lon;timestamp;P1;durP1;ratioP1;P2;durP2;ratioP2
36817;SDS011;22761;51.542;16.450;2023-09-19T18:09:09;6.80;;;1.80;;
36817;SDS011;22761;51.542;16.450;2023-09-19T18:11:38;3.20;;;1.80;;
36817;SDS011;22761;51.542;16.450;2023-09-19T18:14:06;5.70;;;2.00;;
36817;SDS011;22761;51.542;16.450;2023-09-19T18:16:35;5.10;;;1.90;;
36817;SDS011;22761;51.542;16.450;2023-09-19T18:21:33;3.60;;;1.90;;
36817;SDS011;22761;51.542;16.450;2023-09-19T18:24:01;3.80;;;1.90;;
36817;SDS011;22761;51.542;16.450;2023-09-19T18:26:32;3.70;;;1.50;;
36817;SDS011;22761;51.542;16.450;2023-09-19T18:29:01;3.40;;;1.80;;
36817;SDS011;22761;51.542;16.450;2023-09-19T18:31:34;5.30;;;2.20;;
36817;SDS011;22761;51.542;16.450;2023-09-19T18:34:02;4.80;;;2.00;;
36817;SDS011;22761;51.542;16.450;2023-09-19T18:36:31;3.30;;;2.20;;
36817;SDS011;22761;51.542;16.450;2023-09-19T18:38:59;5.20;;;2.20;;
36817;SDS011;22761;51.542;16.450;2023-09-19T18:41:28;3.90;;;1.90;;
36817;SDS011;22761;51.542;16.450;2023-09-19T18:43:57;3.00;;;1.80;;
36817;SDS011;22761;51.542;16.450;2023-09-19T18:46:27;3.70;;;1.90;;
36817;SDS011;22761;51.542;16.450;2023-09-19T18:48:58;3.10;;;1.60;;
36817;SDS011;22761;51.542;16.450;2023-09-19T18:51:27;2.60;;;1.70;;
36817;SDS011;22761;51.542;16.450;2023-09-19T18:53:55;3.90;;;1.70;;
36817;SDS011;22761;51.542;16.450;2023-09-19T18:56:42;4.30;;;1.60;;
36817;SDS011;22761;51.542;16.450;2023-09-19T18:59:12;4.50;;;2.00;;
36817;SDS011;22761;51.542;16.450;2023-09-19T19:01:42;4.80;;;2.30;;
36817;SDS011;22761;51.542;16.450;2023-09-19T19:04:14;3.50;;;2.10;;
36817;SDS011;22761;51.542;16.450;2023-09-19T19:06:43;4.00;;;2.00;;
36817;SDS011;22761;51.542;16.450;2023-09-19T19:09:12;4.10;;;1.80;;
36817;SDS011;22761;51.542;16.450;2023-09-19T19:11:41;3.40;;;1.80;;
36817;SDS011;22761;51.542;16.450;2023-09-19T19:14:10;3.10;;;2.00;;
36817;SDS011;22761;51.542;16.450;2023-09-19T19:16:40;3.30;;;1.90;;
36817;SDS011;22761;51.542;16.450;2023-09-19T19:19:11;4.20;;;2.10;;
36817;SDS011;22761;51.542;16.450;2023-09-19T19:21:41;3.50;;;1.90;;
36817;SDS011;22761;51.542;16.450;2023-09-19T19:24:10;4.50;;;2.30;;
36817;SDS011;22761;51.542;16.450;2023-09-19T19:26:38;3.00;;;1.90;;
36817;SDS011;22761;51.542;16.450;2023-09-19T19:29:07;4.70;;;2.10;;
36817;SDS011;22761;51.542;16.450;2023-09-19T19:31:35;5.30;;;2.10;;
36817;SDS011;22761;51.542;16.450;2023-09-19T19:36:36;4.20;;;2.20;;
36817;SDS011;22761;51.542;16.450;2023-09-19T19:39:05;3.80;;;2.20;;
36817;SDS011;22761;51.542;16.450;2023-09-19T19:41:34;5.00;;;2.20;;
36817;SDS011;22761;51.542;16.450;2023-09-19T19:44:07;4.80;;;2.50;;
36817;SDS011;22761;51.542;16.450;2023-09-19T19:46:37;4.70;;;2.50;;
36817;SDS011;22761;51.542;16.450;2023-09-19T19:49:05;6.40;;;2.90;;
36817;SDS011;22761;51.542;16.450;2023-09-19T19:51:37;6.00;;;3.00;;
36817;SDS011;22761;51.542;16.450;2023-09-19T19:56:36;4.60;;;2.60;;
36817;SDS011;22761;51.542;16.450;2023-09-19T19:59:07;4.20;;;2.00;;
36817;SDS011;22761;51.542;16.450;2023-09-19T20:01:37;4.50;;;2.30;;
36817;SDS011;22761;51.542;16.450;2023-09-19T20:04:05;9.00;;;2.90;;
36817;SDS011;22761;51.542;16.450;2023-09-19T20:06:34;8.30;;;3.00;;
36817;SDS011;22761;51.542;16.450;2023-09-19T20:09:03;7.50;;;3.00;;
36817;SDS011;22761;51.542;16.450;2023-09-19T20:14:02;5.40;;;2.70;;
36817;SDS011;22761;51.542;16.450;2023-09-19T20:16:32;6.00;;;3.00;;
36817;SDS011;22761;51.542;16.450;2023-09-19T20:19:04;10.40;;;3.00;;
36817;SDS011;22761;51.542;16.450;2023-09-19T20:21:33;9.90;;;3.50;;
36817;SDS011;22761;51.542;16.450;2023-09-19T20:24:03;4.80;;;2.50;;
36817;SDS011;22761;51.542;16.450;2023-09-19T20:26:37;6.40;;;2.60;;
36817;SDS011;22761;51.542;16.450;2023-09-19T20:29:06;6.00;;;3.10;;
36817;SDS011;22761;51.542;16.450;2023-09-19T20:31:36;4.80;;;2.60;;
36817;SDS011;22761;51.542;16.450;2023-09-19T20:34:05;6.40;;;2.70;;
36817;SDS011;22761;51.542;16.450;2023-09-19T20:36:34;4.90;;;2.60;;
36817;SDS011;22761;51.542;16.450;2023-09-19T20:39:07;3.90;;;2.60;;
36817;SDS011;22761;51.542;16.450;2023-09-19T20:41:39;4.10;;;2.60;;
36817;SDS011;22761;51.542;16.450;2023-09-19T20:44:07;6.00;;;2.70;;
36817;SDS011;22761;51.542;16.450;2023-09-19T20:46:36;6.00;;;2.50;;
36817;SDS011;22761;51.542;16.450;2023-09-19T20:49:07;5.70;;;2.40;;
36817;SDS011;22761;51.542;16.450;2023-09-19T20:51:36;3.40;;;2.20;;
36817;SDS011;22761;51.542;16.450;2023-09-19T20:54:07;5.70;;;2.90;;
36817;SDS011;22761;51.542;16.450;2023-09-19T20:56:37;4.20;;;2.50;;
36817;SDS011;22761;51.542;16.450;2023-09-19T20:59:06;5.50;;;2.60;;
36817;SDS011;22761;51.542;16.450;2023-09-19T21:01:35;4.90;;;2.30;;
36817;SDS011;22761;51.542;16.450;2023-09-19T21:04:03;3.70;;;2.10;;
36817;SDS011;22761;51.542;16.450;2023-09-19T21:06:32;6.30;;;2.30;;
36817;SDS011;22761;51.542;16.450;2023-09-19T21:09:02;5.40;;;2.10;;
36817;SDS011;22761;51.542;16.450;2023-09-19T21:11:31;3.40;;;2.30;;
36817;SDS011;22761;51.542;16.450;2023-09-19T21:13:59;5.10;;;2.40;;
36817;SDS011;22761;51.542;16.450;2023-09-19T21:16:28;5.90;;;2.50;;
36817;SDS011;22761;51.542;16.450;2023-09-19T21:18:56;4.70;;;2.50;;
36817;SDS011;22761;51.542;16.450;2023-09-19T21:21:27;5.50;;;2.50;;
36817;SDS011;22761;51.542;16.450;2023-09-19T21:23:55;6.00;;;2.60;;
36817;SDS011;22761;51.542;16.450;2023-09-19T21:26:23;5.30;;;2.50;;
36817;SDS011;22761;51.542;16.450;2023-09-19T21:28:52;4.00;;;2.60;;
36817;SDS011;22761;51.542;16.450;2023-09-19T21:31:22;4.30;;;2.50;;
36817;SDS011;22761;51.542;16.450;2023-09-19T21:33:50;6.10;;;3.00;;
36817;SDS011;22761;51.542;16.450;2023-09-19T21:36:19;4.00;;;2.80;;
36817;SDS011;22761;51.542;16.450;2023-09-19T21:38:49;6.70;;;2.80;;
36817;SDS011;22761;51.542;16.450;2023-09-19T21:41:18;5.90;;;2.30;;
36817;SDS011;22761;51.542;16.450;2023-09-19T21:43:47;4.80;;;2.50;;
36817;SDS011;22761;51.542;16.450;2023-09-19T21:46:19;6.80;;;2.70;;
36817;SDS011;22761;51.542;16.450;2023-09-19T21:48:51;3.70;;;2.50;;
36817;SDS011;22761;51.542;16.450;2023-09-19T21:51:22;5.20;;;2.70;;
36817;SDS011;22761;51.542;16.450;2023-09-19T21:53:52;5.00;;;2.60;;
36817;SDS011;22761;51.542;16.450;2023-09-19T21:56:20;9.70;;;2.90;;
36817;SDS011;22761;51.542;16.450;2023-09-19T21:58:49;6.00;;;2.70;;
36817;SDS011;22761;51.542;16.450;2023-09-19T22:01:18;8.20;;;2.60;;
36817;SDS011;22761;51.542;16.450;2023-09-19T22:03:51;7.30;;;2.80;;
36817;SDS011;22761;51.542;16.450;2023-09-19T22:06:20;3.90;;;2.40;;
36817;SDS011;22761;51.542;16.450;2023-09-19T22:08:49;4.10;;;2.30;;
36817;SDS011;22761;51.542;16.450;2023-09-19T22:11:19;6.00;;;3.30;;
36817;SDS011;22761;51.542;16.450;2023-09-19T22:13:50;6.60;;;3.10;;
36817;SDS011;22761;51.542;16.450;2023-09-19T22:16:19;4.70;;;3.30;;
36817;SDS011;22761;51.542;16.450;2023-09-19T22:18:48;5.20;;;2.60;;
36817;SDS011;22761;51.542;16.450;2023-09-19T22:21:21;3.80;;;2.70;;
36817;SDS011;22761;51.542;16.450;2023-09-19T22:24:01;4.60;;;2.80;;
36817;SDS011;22761;51.542;16.450;2023-09-19T22:26:29;5.30;;;2.60;;
36817;SDS011;22761;51.542;16.450;2023-09-19T22:28:59;6.70;;;2.80;;
36817;SDS011;22761;51.542;16.450;2023-09-19T22:31:28;5.90;;;2.60;;
36817;SDS011;22761;51.542;16.450;2023-09-19T22:34:10;5.90;;;3.10;;
36817;SDS011;22761;51.542;16.450;2023-09-19T22:36:39;3.50;;;2.40;;
36817;SDS011;22761;51.542;16.450;2023-09-19T22:39:12;5.40;;;2.80;;
36817;SDS011;22761;51.542;16.450;2023-09-19T22:41:53;4.70;;;2.50;;
36817;SDS011;22761;51.542;16.450;2023-09-19T22:44:22;4.20;;;2.80;;
36817;SDS011;22761;51.542;16.450;2023-09-19T22:46:51;2.80;;;2.20;;
36817;SDS011;22761;51.542;16.450;2023-09-19T22:49:20;4.20;;;2.80;;
36817;SDS011;22761;51.542;16.450;2023-09-19T22:51:49;4.10;;;2.40;;
36817;SDS011;22761;51.542;16.450;2023-09-19T22:54:20;4.50;;;2.30;;
36817;SDS011;22761;51.542;16.450;2023-09-19T22:56:55;4.20;;;2.50;;
36817;SDS011;22761;51.542;16.450;2023-09-19T22:59:25;4.70;;;2.60;;
36817;SDS011;22761;51.542;16.450;2023-09-19T23:01:54;5.90;;;2.40;;
36817;SDS011;22761;51.542;16.450;2023-09-19T23:04:26;4.50;;;2.20;;
36817;SDS011;22761;51.542;16.450;2023-09-19T23:06:55;8.30;;;2.90;;
36817;SDS011;22761;51.542;16.450;2023-09-19T23:09:28;5.50;;;2.60;;
36817;SDS011;22761;51.542;16.450;2023-09-19T23:11:57;5.00;;;2.70;;
36817;SDS011;22761;51.542;16.450;2023-09-19T23:14:39;4.40;;;2.40;;
36817;SDS011;22761;51.542;16.450;2023-09-19T23:17:08;6.00;;;2.50;;
36817;SDS011;22761;51.542;16.450;2023-09-19T23:19:42;4.70;;;2.50;;
36817;SDS011;22761;51.542;16.450;2023-09-19T23:24:51;3.60;;;2.80;;
36817;SDS011;22761;51.542;16.450;2023-09-19T23:27:40;4.40;;;2.80;;
36817;SDS011;22761;51.542;16.450;2023-09-19T23:30:13;3.80;;;2.90;;
36817;SDS011;22761;51.542;16.450;2023-09-19T23:32:45;4.60;;;2.90;;
36817;SDS011;22761;51.542;16.450;2023-09-19T23:35:13;6.10;;;3.00;;
36817;SDS011;22761;51.542;16.450;2023-09-19T23:37:43;5.20;;;2.80;;
36817;SDS011;22761;51.542;16.450;2023-09-19T23:40:12;5.10;;;3.00;;
36817;SDS011;22761;51.542;16.450;2023-09-19T23:42:41;7.40;;;3.00;;
36817;SDS011;22761;51.542;16.450;2023-09-19T23:45:10;6.60;;;2.90;;
36817;SDS011;22761;51.542;16.450;2023-09-19T23:47:39;6.40;;;2.90;;
36817;SDS011;22761;51.542;16.450;2023-09-19T23:50:07;5.70;;;3.10;;
36817;SDS011;22761;51.542;16.450;2023-09-19T23:52:37;5.40;;;3.00;;
36817;SDS011;22761;51.542;16.450;2023-09-19T23:55:05;4.60;;;3.20;;
36817;SDS011;22761;51.542;16.450;2023-09-19T23:57:38;7.20;;;2.80;;
